Time;durP1;ratioP1;P1;durP2;ratioP2;P2;SDS_P1;SDS_P2;PMS_P1;PMS_P2;Temp;Humidity;BMP_temperature;BMP_pressure;BME280_temperature;BME280_humidity;BME280_pressure;Samples;Min_cycle;Max_cycle;Signal;HPM_P1;HPM_P2
2023/06/27 00:00:17;;;;;;;105.53;95.88;;;;;;;20.00;100.00;100883.41;5060947;28;20072;-80
2023/06/27 00:02:45;;;;;;;118.28;108.05;;;;;;;20.04;100.00;100888.03;5061610;28;20055;-83
2023/06/27 00:05:12;;;;;;;107.90;98.30;;;;;;;19.80;100.00;100884.97;5060425;28;20488;-80
2023/06/27 00:07:42;;;;;;;101.30;92.30;;;;;;;19.90;100.00;100878.81;5059475;28;20045;-80
2023/06/27 00:10:10;;;;;;;109.82;99.95;;;;;;;19.80;100.00;100882.28;5062633;28;20051;-83
2023/06/27 00:12:38;;;;;;;107.60;97.90;;;;;;;19.96;100.00;100877.75;5051290;28;20502;-84
2023/06/27 00:15:07;;;;;;;105.75;95.82;;;;;;;20.03;100.00;100877.50;5051815;28;20061;-84
2023/06/27 00:17:34;;;;;;;107.57;98.20;;;;;;;20.12;100.00;100879.44;5051605;28;20051;-80
2023/06/27 00:20:02;;;;;;;119.22;108.82;;;;;;;20.04;100.00;100871.84;5062308;28;20127;-83
2023/06/27 00:22:30;;;;;;;114.80;105.10;;;;;;;20.05;100.00;100872.66;5063267;28;20085;-81
2023/06/27 00:24:57;;;;;;;125.35;114.47;;;;;;;20.05;100.00;100875.34;5056944;28;20053;-80
2023/06/27 00:27:24;;;;;;;109.95;100.32;;;;;;;19.90;100.00;100876.09;5063977;28;20048;-84
2023/06/27 00:29:52;;;;;;;97.40;88.20;;;;;;;19.77;100.00;100874.72;5059394;28;20056;-79
2023/06/27 00:32:19;;;;;;;110.90;100.97;;;;;;;19.89;100.00;100871.81;5061202;28;20056;-80
2023/06/27 00:34:46;;;;;;;114.68;104.53;;;;;;;19.88;100.00;100876.38;5060931;28;20048;-83
2023/06/27 00:37:13;;;;;;;122.13;111.43;;;;;;;19.86;100.00;100869.63;5057901;28;20053;-80
2023/06/27 00:39:41;;;;;;;154.13;141.43;;;;;;;19.79;100.00;100871.75;5062398;28;20053;-80
2023/06/27 00:42:08;;;;;;;105.45;95.95;;;;;;;19.81;100.00;100870.41;5061716;28;20446;-80
2023/06/27 00:44:35;;;;;;;106.38;96.47;;;;;;;19.94;100.00;100869.13;5051470;28;20049;-80
2023/06/27 00:47:05;;;;;;;101.22;91.63;;;;;;;19.70;100.00;100867.94;5059442;28;20049;-80
2023/06/27 00:49:32;;;;;;;96.80;87.38;;;;;;;19.66;100.00;100873.84;5060751;28;20057;-80
2023/06/27 00:52:00;;;;;;;98.88;89.15;;;;;;;19.44;100.00;100863.22;5062016;28;20689;-80
2023/06/27 00:54:27;;;;;;;91.95;82.75;;;;;;;19.62;100.00;100864.66;5053172;28;20523;-79
2023/06/27 00:56:54;;;;;;;97.55;88.40;;;;;;;19.69;100.00;100859.03;5061644;28;20068;-80
2023/06/27 00:59:21;;;;;;;85.50;76.88;;;;;;;19.22;100.00;100867.94;5060664;28;20064;-80
2023/06/27 01:01:50;;;;;;;100.63;91.43;;;;;;;19.58;100.00;100873.53;5059986;28;20126;-80
2023/06/27 01:04:18;;;;;;;96.93;87.53;;;;;;;19.62;100.00;100851.19;5059138;28;20516;-80
2023/06/27 01:06:54;;;;;;;94.47;85.53;;;;;;;19.52;100.00;100848.44;5050387;28;20075;-80
2023/06/27 01:09:27;;;;;;;89.55;81.10;;;;;;;19.53;100.00;100843.88;5057788;28;20061;-80
2023/06/27 01:12:01;;;;;;;151.65;138.82;;;;;;;19.34;100.00;100844.31;5062648;28;20045;-80
2023/06/27 01:14:31;;;;;;;159.25;145.57;;;;;;;19.40;100.00;100848.66;5055737;28;20052;-80
2023/06/27 01:17:00;;;;;;;172.48;158.23;;;;;;;19.39;100.00;100841.63;5064220;28;20395;-80
2023/06/27 01:19:31;;;;;;;154.63;141.77;;;;;;;19.48;100.00;100841.94;5055868;28;20053;-80
2023/06/27 01:22:03;;;;;;;92.68;83.82;;;;;;;19.37;100.00;100838.41;5056917;28;20069;-80
2023/06/27 01:24:33;;;;;;;100.53;91.22;;;;;;;18.83;100.00;100843.16;5062097;28;20059;-80
2023/06/27 01:27:01;;;;;;;99.95;90.35;;;;;;;19.20;100.00;100848.53;5061484;28;20449;-80
2023/06/27 01:29:29;;;;;;;93.15;84.32;;;;;;;19.07;100.00;100846.31;5060995;28;20053;-80
2023/06/27 01:32:04;;;;;;;131.27;120.32;;;;;;;19.11;100.00;100845.50;5058368;28;20052;-80
2023/06/27 01:34:34;;;;;;;133.32;121.97;;;;;;;19.17;100.00;100843.66;5059797;28;20064;-80
2023/06/27 01:37:08;;;;;;;119.82;109.57;;;;;;;18.62;100.00;100845.66;5058249;28;20110;-83
2023/06/27 01:39:43;;;;;;;130.93;120.13;;;;;;;18.88;100.00;100859.34;5060988;28;20055;-80
2023/06/27 01:42:18;;;;;;;123.07;112.55;;;;;;;19.03;100.00;100859.44;5058441;28;20048;-83
2023/06/27 01:44:47;;;;;;;131.70;120.50;;;;;;;19.07;100.00;100849.00;5055381;28;20052;-80
2023/06/27 01:47:14;;;;;;;120.05;109.50;;;;;;;18.54;100.00;100851.50;5061066;28;20105;-80
2023/06/27 01:49:41;;;;;;;136.60;125.15;;;;;;;18.77;100.00;100851.19;5054926;28;20140;-80
2023/06/27 01:52:12;;;;;;;117.72;107.68;;;;;;;18.36;100.00;100843.81;5062812;28;20048;-80
2023/06/27 01:54:41;;;;;;;120.18;109.88;;;;;;;18.48;100.00;100853.31;5053760;28;20053;-80
2023/06/27 01:57:08;;;;;;;127.10;116.13;;;;;;;18.79;100.00;100852.81;5049303;28;20052;-80
2023/06/27 01:59:35;;;;;;;123.22;112.70;;;;;;;18.81;100.00;100856.88;5051334;28;20051;-80
2023/06/27 02:02:03;;;;;;;123.80;113.30;;;;;;;18.81;100.00;100850.69;5054347;28;20450;-80
2023/06/27 02:04:30;;;;;;;121.03;110.50;;;;;;;18.77;100.00;100850.38;5059394;28;20407;-80
2023/06/27 02:06:57;;;;;;;127.80;116.93;;;;;;;18.62;100.00;100847.53;5059051;28;20407;-80
2023/06/27 02:09:24;;;;;;;131.85;120.75;;;;;;;18.67;100.00;100842.19;5063048;28;20049;-80
2023/06/27 02:11:52;;;;;;;127.32;116.53;;;;;;;18.86;100.00;100846.16;5062550;28;20526;-80
2023/06/27 02:14:19;;;;;;;155.32;142.30;;;;;;;18.57;100.00;100848.28;5060013;28;20406;-83
2023/06/27 02:16:46;;;;;;;124.65;114.07;;;;;;;18.56;100.00;100857.44;5054968;28;20056;-80
2023/06/27 02:19:13;;;;;;;120.68;110.30;;;;;;;18.35;100.00;100859.13;5060235;28;20044;-80
2023/06/27 02:21:40;;;;;;;130.50;119.68;;;;;;;18.48;100.00;100850.63;5058429;28;20049;-80
2023/06/27 02:24:07;;;;;;;125.30;114.25;;;;;;;18.68;100.00;100852.72;5058627;28;20520;-80
2023/06/27 02:26:34;;;;;;;133.68;122.40;;;;;;;18.62;100.00;100840.28;5059965;28;20045;-80
2023/06/27 02:29:02;;;;;;;104.05;94.63;;;;;;;18.44;100.00;100843.34;5061295;28;20441;-79
2023/06/27 02:31:29;;;;;;;122.60;112.10;;;;;;;18.07;100.00;100841.38;5058591;28;20083;-79
2023/06/27 02:33:56;;;;;;;120.97;110.28;;;;;;;18.44;100.00;100846.03;5049344;28;20084;-80
2023/06/27 02:36:27;;;;;;;93.00;84.38;;;;;;;18.41;100.00;100851.94;5050864;28;20132;-80
2023/06/27 02:38:54;;;;;;;90.07;81.45;;;;;;;18.36;100.00;100857.25;5064318;28;20143;-80
2023/06/27 02:41:22;;;;;;;80.05;72.35;;;;;;;18.37;100.00;100861.56;5060280;28;20049;-80
2023/06/27 02:43:48;;;;;;;81.95;74.15;;;;;;;18.38;100.00;100855.13;5071128;28;20106;-80
2023/06/27 02:46:17;;;;;;;78.28;70.78;;;;;;;17.93;100.00;100854.38;5062669;28;20053;-80
2023/06/27 02:48:44;;;;;;;86.25;78.32;;;;;;;18.19;100.00;100854.66;5063942;28;20053;-79
2023/06/27 02:51:11;;;;;;;83.50;75.95;;;;;;;17.96;100.00;100847.69;5064629;28;20525;-80
2023/06/27 02:53:38;;;;;;;80.88;73.68;;;;;;;17.76;100.00;100862.50;5055649;28;20421;-80
2023/06/27 02:56:07;;;;;;;92.95;84.95;;;;;;;17.73;100.00;100859.47;5067874;28;20056;-80
2023/06/27 02:58:35;;;;;;;82.88;75.30;;;;;;;17.88;100.00;100856.19;5063555;28;20053;-80
2023/06/27 03:01:03;;;;;;;80.47;72.95;;;;;;;17.99;100.00;100858.75;5066026;28;20052;-80
2023/06/27 03:03:31;;;;;;;79.15;71.32;;;;;;;18.04;100.00;100858.81;5061780;28;20053;-80
2023/06/27 03:06:02;;;;;;;82.15;74.43;;;;;;;18.21;100.00;100860.59;5067469;28;20052;-79
2023/06/27 03:08:29;;;;;;;79.25;71.93;;;;;;;18.17;100.00;100862.16;5063783;28;20056;-80
2023/06/27 03:10:56;;;;;;;84.55;77.40;;;;;;;17.62;100.00;100859.34;5064128;28;20048;-80
2023/06/27 03:13:23;;;;;;;81.82;74.55;;;;;;;17.50;100.00;100865.91;5063703;28;20052;-80
2023/06/27 03:15:50;;;;;;;76.07;68.55;;;;;;;17.89;100.00;100869.38;5062480;28;20045;-80
2023/06/27 03:18:17;;;;;;;79.50;72.22;;;;;;;17.99;100.00;100863.31;5061351;28;20041;-80
2023/06/27 03:20:46;;;;;;;78.93;71.65;;;;;;;18.05;100.00;100868.50;5061029;28;20128;-80
2023/06/27 03:23:12;;;;;;;82.07;73.97;;;;;;;18.19;100.00;100876.19;5054565;28;20051;-80
2023/06/27 03:25:39;;;;;;;81.85;74.40;;;;;;;18.10;100.00;100875.81;5062661;28;20048;-80
2023/06/27 03:28:06;;;;;;;80.82;73.07;;;;;;;18.04;100.00;100874.94;5062289;28;20055;-80
2023/06/27 03:30:33;;;;;;;90.13;81.97;;;;;;;17.97;100.00;100870.81;5065376;28;20041;-80
2023/06/27 03:33:00;;;;;;;91.30;82.63;;;;;;;18.15;100.00;100877.72;5057749;28;20159;-80
2023/06/27 03:35:27;;;;;;;85.07;77.18;;;;;;;18.21;100.00;100879.41;5065038;28;20450;-80
2023/06/27 03:37:56;;;;;;;81.13;73.63;;;;;;;18.31;100.00;100887.59;5062546;28;20499;-80
2023/06/27 03:40:23;;;;;;;89.30;80.90;;;;;;;18.33;100.00;100892.72;5058146;28;20127;-80
2023/06/27 03:42:50;;;;;;;84.90;76.85;;;;;;;18.21;100.00;100884.78;5061066;28;20045;-80
2023/06/27 03:45:16;;;;;;;89.82;81.65;;;;;;;18.43;100.00;100890.94;5061802;28;20490;-80
2023/06/27 03:47:43;;;;;;;92.60;84.30;;;;;;;18.60;100.00;100880.06;5063917;28;20052;-80
2023/06/27 03:50:10;;;;;;;94.28;85.60;;;;;;;18.41;100.00;100884.19;5064318;28;20051;-80
2023/06/27 03:52:38;;;;;;;90.10;81.90;;;;;;;18.61;100.00;100887.09;5062859;28;20041;-80
2023/06/27 03:55:07;;;;;;;92.35;83.75;;;;;;;18.71;100.00;100891.75;5062447;28;20478;-83
2023/06/27 03:57:34;;;;;;;92.43;84.13;;;;;;;18.73;100.00;100893.16;5054916;28;20127;-82
2023/06/27 04:00:01;;;;;;;95.82;86.68;;;;;;;18.97;100.00;100885.53;5060854;28;20143;-82
2023/06/27 04:02:28;;;;;;;89.60;81.63;;;;;;;19.06;100.00;100887.72;5067497;28;20053;-82
2023/06/27 04:04:55;;;;;;;95.60;87.38;;;;;;;19.12;100.00;100882.16;5062570;28;20064;-82
2023/06/27 04:07:22;;;;;;;90.82;82.55;;;;;;;19.06;100.00;100888.53;5061263;28;20124;-83
2023/06/27 04:09:49;;;;;;;90.15;81.75;;;;;;;19.13;100.00;100891.84;5060444;28;20131;-83
2023/06/27 04:12:17;;;;;;;91.10;82.93;;;;;;;19.24;100.00;100895.41;5060239;28;20051;-83
2023/06/27 04:14:45;;;;;;;95.55;86.80;;;;;;;19.31;100.00;100893.31;5059023;28;20049;-83
2023/06/27 04:17:11;;;;;;;90.30;82.18;;;;;;;19.31;100.00;100895.19;5058840;28;20052;-82
2023/06/27 04:19:38;;;;;;;88.93;80.93;;;;;;;19.50;100.00;100895.56;5064810;28;20119;-82
2023/06/27 04:22:05;;;;;;;82.53;74.53;;;;;;;19.51;100.00;100900.69;5063433;28;20059;-83
2023/06/27 04:24:32;;;;;;;82.53;74.93;;;;;;;19.49;100.00;100893.97;5058406;28;20045;-82
2023/06/27 04:26:59;;;;;;;91.70;83.90;;;;;;;19.71;100.00;100893.81;5060882;28;20048;-83
2023/06/27 04:29:27;;;;;;;85.47;77.47;;;;;;;19.74;100.00;100896.00;5058471;28;20045;-80
2023/06/27 04:31:54;;;;;;;82.72;75.53;;;;;;;19.58;100.00;100905.84;5062830;28;20048;-79
2023/06/27 04:34:22;;;;;;;82.78;75.28;;;;;;;19.74;100.00;100896.81;5054019;28;20048;-83
2023/06/27 04:36:51;;;;;;;84.82;76.78;;;;;;;19.92;100.00;100890.13;5062180;28;20494;-83
2023/06/27 04:39:17;;;;;;;85.38;77.50;;;;;;;20.09;100.00;100901.53;5059992;28;20045;-83
2023/06/27 04:41:44;;;;;;;85.85;77.57;;;;;;;19.99;100.00;100897.97;5061338;28;20587;-83
2023/06/27 04:44:11;;;;;;;78.10;71.25;;;;;;;20.10;100.00;100897.75;5059792;28;20055;-83
2023/06/27 04:46:39;;;;;;;77.35;70.00;;;;;;;20.19;100.00;100900.75;5058587;28;20059;-83
2023/06/27 04:49:06;;;;;;;82.75;75.15;;;;;;;20.29;100.00;100895.38;5064490;28;20056;-83
2023/06/27 04:51:33;;;;;;;78.80;71.80;;;;;;;20.31;100.00;100895.13;5050503;28;20554;-83
2023/06/27 04:54:00;;;;;;;82.53;74.97;;;;;;;20.33;100.00;100892.94;5050595;28;20048;-83
2023/06/27 04:56:27;;;;;;;82.43;75.05;;;;;;;20.53;100.00;100895.72;5054033;28;20500;-83
2023/06/27 04:58:54;;;;;;;88.72;81.15;;;;;;;20.77;100.00;100889.81;5059488;28;20044;-83
2023/06/27 05:01:21;;;;;;;85.10;77.90;;;;;;;20.81;100.00;100894.38;5061812;28;20053;-83
2023/06/27 05:03:49;;;;;;;80.50;73.43;;;;;;;21.13;100.00;100897.88;5061339;28;20059;-83
2023/06/27 05:06:16;;;;;;;76.93;71.05;;;;;;;21.03;100.00;100896.81;5060784;28;20430;-82
2023/06/27 05:08:44;;;;;;;69.05;63.30;;;;;;;21.14;100.00;100892.19;5059420;28;20051;-83
2023/06/27 05:11:11;;;;;;;72.43;66.63;;;;;;;21.01;100.00;100903.56;5061551;28;20045;-83
2023/06/27 05:13:38;;;;;;;73.95;67.63;;;;;;;21.28;100.00;100895.16;5057986;28;20049;-82
2023/06/27 05:16:05;;;;;;;69.25;63.45;;;;;;;21.38;100.00;100884.34;5065925;28;20505;-83
2023/06/27 05:18:32;;;;;;;61.53;56.75;;;;;;;21.10;100.00;100885.75;5055436;28;20498;-83
2023/06/27 05:21:01;;;;;;;63.10;58.20;;;;;;;21.45;100.00;100884.91;5059770;28;20049;-83
2023/06/27 05:23:28;;;;;;;61.40;56.53;;;;;;;21.64;100.00;100892.41;5064344;28;20067;-82
2023/06/27 05:25:55;;;;;;;62.22;57.55;;;;;;;21.95;100.00;100887.69;5057784;28;20048;-83
2023/06/27 05:28:22;;;;;;;53.45;49.25;;;;;;;22.06;100.00;100888.41;5062415;28;20045;-80
2023/06/27 05:30:49;;;;;;;53.67;49.58;;;;;;;22.14;100.00;100887.84;5058686;28;20052;-80
2023/06/27 05:33:15;;;;;;;46.80;43.05;;;;;;;22.08;100.00;100887.06;5058421;28;20071;-80
2023/06/27 05:35:42;;;;;;;50.28;46.17;;;;;;;22.29;100.00;100889.69;5049639;28;20052;-80
2023/06/27 05:38:11;;;;;;;47.40;43.50;;;;;;;22.59;100.00;100885.97;5049739;28;20120;-83
2023/06/27 05:40:37;;;;;;;43.10;39.70;;;;;;;22.70;100.00;100881.28;5049572;28;20045;-83
2023/06/27 05:43:04;;;;;;;40.90;37.40;;;;;;;22.68;100.00;100881.56;5058869;28;20053;-83
2023/06/27 05:45:31;;;;;;;37.42;34.33;;;;;;;22.75;100.00;100878.53;5061510;28;20107;-83
2023/06/27 05:47:58;;;;;;;35.15;32.28;;;;;;;22.76;100.00;100874.75;5060377;28;20049;-83
2023/06/27 05:50:25;;;;;;;36.63;33.50;;;;;;;22.96;100.00;100885.41;5057372;28;20049;-82
2023/06/27 05:52:52;;;;;;;34.67;31.73;;;;;;;22.99;100.00;100881.34;5057376;28;20055;-83
2023/06/27 05:55:20;;;;;;;36.60;33.78;;;;;;;23.07;100.00;100884.22;5055532;28;20441;-83
2023/06/27 05:57:47;;;;;;;32.95;30.35;;;;;;;23.02;100.00;100878.06;5058657;28;20134;-82
2023/06/27 06:00:15;;;;;;;31.50;28.90;;;;;;;23.07;100.00;100878.00;5057953;28;20059;-83
2023/06/27 06:02:43;;;;;;;31.65;29.15;;;;;;;23.15;100.00;100877.41;5057615;28;20052;-83
2023/06/27 06:05:11;;;;;;;28.83;26.50;;;;;;;23.16;100.00;100868.16;5051961;28;20139;-82
2023/06/27 06:07:43;;;;;;;28.02;25.63;;;;;;;23.29;100.00;100878.31;5061188;28;20052;-83
2023/06/27 06:10:11;;;;;;;28.75;26.25;;;;;;;23.30;100.00;100874.53;5062783;28;20525;-83
2023/06/27 06:12:39;;;;;;;30.10;27.35;;;;;;;23.37;100.00;100873.38;5063137;28;20063;-83
2023/06/27 06:15:07;;;;;;;29.75;27.05;;;;;;;23.42;100.00;100878.72;5063773;28;20041;-80
2023/06/27 06:17:34;;;;;;;28.33;25.83;;;;;;;23.60;100.00;100885.31;5053760;28;20458;-80
2023/06/27 06:20:01;;;;;;;28.25;25.95;;;;;;;23.57;100.00;100875.03;5053062;28;20127;-80
2023/06/27 06:22:28;;;;;;;30.10;27.48;;;;;;;23.51;100.00;100879.72;5059124;28;20064;-80
2023/06/27 06:24:55;;;;;;;33.83;30.83;;;;;;;23.71;100.00;100879.50;5061866;28;20053;-80
2023/06/27 06:27:22;;;;;;;31.00;28.30;;;;;;;23.63;100.00;100876.59;5065863;28;20053;-80
2023/06/27 06:29:50;;;;;;;31.42;28.85;;;;;;;23.58;100.00;100871.25;5063355;28;20049;-80
2023/06/27 06:32:17;;;;;;;32.78;29.80;;;;;;;23.90;100.00;100873.31;5062148;28;20049;-80
2023/06/27 06:34:44;;;;;;;32.75;29.85;;;;;;;24.11;100.00;100874.63;5065226;28;20049;-80
2023/06/27 06:37:11;;;;;;;29.08;26.90;;;;;;;24.02;100.00;100873.69;5060041;28;20044;-80
2023/06/27 06:39:37;;;;;;;28.17;25.98;;;;;;;24.18;100.00;100868.88;5064326;28;20053;-80
2023/06/27 06:42:04;;;;;;;30.70;28.30;;;;;;;24.27;100.00;100858.13;5061180;28;20560;-80
2023/06/27 06:44:31;;;;;;;31.27;28.70;;;;;;;24.50;100.00;100859.19;5062162;28;20131;-80
2023/06/27 06:47:00;;;;;;;28.05;25.65;;;;;;;24.44;100.00;100856.53;5068607;28;20059;-79
2023/06/27 06:49:26;;;;;;;29.75;27.25;;;;;;;24.21;100.00;100858.22;5064842;28;20541;-80
2023/06/27 06:51:54;;;;;;;28.95;26.45;;;;;;;24.37;100.00;100864.22;5058909;28;20049;-80
2023/06/27 06:54:21;;;;;;;30.05;27.63;;;;;;;24.61;100.00;100852.50;5069610;28;20041;-80
2023/06/27 06:56:49;;;;;;;27.75;25.35;;;;;;;24.88;100.00;100857.19;5061855;28;20056;-80
2023/06/27 06:59:16;;;;;;;25.98;23.88;;;;;;;24.66;100.00;100855.09;5062312;28;20049;-81
2023/06/27 07:01:43;;;;;;;26.77;24.25;;;;;;;24.74;100.00;100849.00;5063219;28;20045;-82
2023/06/27 07:04:12;;;;;;;27.58;24.77;;;;;;;25.21;100.00;100855.28;5057232;28;20055;-82
2023/06/27 07:06:39;;;;;;;28.98;26.05;;;;;;;25.04;100.00;100855.00;5061752;28;20140;-82
2023/06/27 07:09:06;;;;;;;24.30;22.20;;;;;;;25.15;100.00;100853.75;5069303;28;20040;-83
2023/06/27 07:11:34;;;;;;;24.33;22.23;;;;;;;25.25;100.00;100852.75;5061803;28;20437;-82
2023/06/27 07:14:01;;;;;;;25.58;23.48;;;;;;;25.38;100.00;100857.38;5062244;28;20044;-80
2023/06/27 07:16:28;;;;;;;22.95;21.15;;;;;;;25.30;100.00;100856.19;5061967;28;20048;-80
2023/06/27 07:18:55;;;;;;;23.92;22.13;;;;;;;25.18;100.00;100852.34;5061569;28;20057;-80
2023/06/27 07:21:23;;;;;;;23.92;22.02;;;;;;;25.44;100.00;100849.94;5061432;28;20445;-80
2023/06/27 07:23:51;;;;;;;24.00;21.98;;;;;;;25.82;100.00;100850.53;5052054;28;20048;-80
2023/06/27 07:26:18;;;;;;;23.40;21.70;;;;;;;25.72;100.00;100846.09;5052071;28;20045;-82
2023/06/27 07:28:45;;;;;;;22.85;21.00;;;;;;;25.74;100.00;100851.22;5053264;28;20068;-83
2023/06/27 07:31:12;;;;;;;23.58;21.63;;;;;;;25.53;100.00;100846.19;5061231;28;20140;-82
2023/06/27 07:33:39;;;;;;;25.52;23.25;;;;;;;25.85;100.00;100846.41;5063207;28;20135;-82
2023/06/27 07:36:06;;;;;;;21.58;19.98;;;;;;;25.44;100.00;100842.56;5060243;28;20088;-82
2023/06/27 07:38:34;;;;;;;22.67;21.00;;;;;;;25.84;100.00;100836.63;5065818;28;20502;-83
2023/06/27 07:41:01;;;;;;;24.05;22.02;;;;;;;26.17;100.00;100834.50;5061049;28;20048;-83
2023/06/27 07:43:28;;;;;;;22.45;20.65;;;;;;;26.24;100.00;100832.19;5059112;28;20049;-83
2023/06/27 07:45:54;;;;;;;22.60;20.48;;;;;;;26.31;100.00;100843.44;5058721;28;20136;-82
2023/06/27 07:48:21;;;;;;;22.92;20.88;;;;;;;26.00;100.00;100837.91;5061203;28;20481;-82
2023/06/27 07:50:48;;;;;;;21.92;20.42;;;;;;;25.77;100.00;100835.09;5061275;28;20045;-82
2023/06/27 07:53:16;;;;;;;20.83;19.42;;;;;;;26.08;100.00;100845.31;5068899;28;20485;-82
2023/06/27 07:55:44;;;;;;;24.15;22.45;;;;;;;26.05;100.00;100840.50;5063330;28;20045;-81
2023/06/27 07:58:11;;;;;;;22.20;20.70;;;;;;;26.15;100.00;100837.56;5065874;28;20052;-80
2023/06/27 08:00:38;;;;;;;20.85;19.30;;;;;;;26.62;100.00;100834.53;5060811;28;20429;-83
2023/06/27 08:03:05;;;;;;;20.88;19.38;;;;;;;26.48;100.00;100831.88;5060475;28;20114;-82
2023/06/27 08:05:34;;;;;;;20.60;19.20;;;;;;;26.67;100.00;100832.50;5061241;28;20619;-82
2023/06/27 08:08:01;;;;;;;20.20;18.70;;;;;;;26.69;100.00;100832.22;5058616;28;20053;-83
2023/06/27 08:10:28;;;;;;;21.02;19.23;;;;;;;27.12;100.00;100835.13;5063202;28;20114;-82
2023/06/27 08:12:57;;;;;;;21.15;19.38;;;;;;;27.16;100.00;100835.34;5062114;28;20040;-83
2023/06/27 08:15:23;;;;;;;20.55;18.92;;;;;;;26.99;100.00;100824.31;5057071;28;20052;-83
2023/06/27 08:17:50;;;;;;;19.92;18.40;;;;;;;27.05;100.00;100829.34;5059974;28;20044;-83
2023/06/27 08:20:18;;;;;;;21.70;19.83;;;;;;;27.29;100.00;100831.69;5051089;28;20045;-82
2023/06/27 08:22:45;;;;;;;21.08;19.38;;;;;;;27.05;100.00;100829.34;5057856;28;20532;-83
2023/06/27 08:25:12;;;;;;;21.20;19.55;;;;;;;27.40;100.00;100827.56;5059093;28;20502;-83
2023/06/27 08:27:39;;;;;;;20.70;19.10;;;;;;;27.18;100.00;100827.66;5058230;28;20052;-82
2023/06/27 08:30:09;;;;;;;21.42;19.83;;;;;;;27.01;100.00;100827.53;5062071;28;20052;-83
2023/06/27 08:32:36;;;;;;;20.02;18.52;;;;;;;27.42;100.00;100824.53;5059617;28;20052;-83
2023/06/27 08:35:05;;;;;;;20.33;18.92;;;;;;;27.62;100.00;100820.38;5059829;28;20135;-82
2023/06/27 08:37:32;;;;;;;20.20;18.70;;;;;;;27.49;100.00;100824.06;5057653;28;20136;-82
2023/06/27 08:39:59;;;;;;;21.35;19.75;;;;;;;27.57;100.00;100818.63;5062420;28;20048;-83
2023/06/27 08:42:27;;;;;;;21.90;20.00;;;;;;;27.61;100.00;100826.97;5060082;28;20497;-83
2023/06/27 08:44:54;;;;;;;23.67;21.80;;;;;;;27.50;100.00;100821.00;5059859;28;20088;-82
2023/06/27 08:47:26;;;;;;;23.25;21.35;;;;;;;27.57;100.00;100824.09;5053802;28;20048;-81
2023/06/27 08:50:03;;;;;;;21.77;19.98;;;;;;;27.36;100.00;100814.88;5058670;28;20144;-82
2023/06/27 08:52:34;;;;;;;22.88;21.10;;;;;;;27.37;100.00;100811.84;5060722;28;20490;-82
2023/06/27 08:55:04;;;;;;;24.50;22.63;;;;;;;27.81;100.00;100820.94;5050624;28;20182;-82
2023/06/27 08:57:33;;;;;;;24.15;22.30;;;;;;;27.22;100.00;100816.91;5050149;28;20132;-82
2023/06/27 09:00:09;;;;;;;21.45;19.85;;;;;;;27.67;100.00;100820.25;5055402;28;20102;-81
2023/06/27 09:02:38;;;;;;;22.48;20.77;;;;;;;27.69;100.00;100818.00;5057643;28;20056;-83
2023/06/27 09:05:08;;;;;;;25.48;23.48;;;;;;;28.25;100.00;100815.47;5065918;28;20049;-83
2023/06/27 09:07:35;;;;;;;24.33;22.52;;;;;;;27.87;100.00;100816.13;5061601;28;20135;-82
2023/06/27 09:10:03;;;;;;;24.02;22.35;;;;;;;27.89;100.00;100813.88;5060640;28;20049;-82
2023/06/27 09:12:32;;;;;;;23.42;21.40;;;;;;;27.03;100.00;100808.97;5059403;28;20048;-80
2023/06/27 09:14:59;;;;;;;21.50;19.90;;;;;;;26.69;100.00;100799.53;5059649;28;20497;-80
2023/06/27 09:17:26;;;;;;;22.00;20.20;;;;;;;27.19;100.00;100807.44;5061635;28;20045;-80
2023/06/27 09:19:55;;;;;;;22.88;20.95;;;;;;;27.86;100.00;100804.38;5056139;28;20045;-80
2023/06/27 09:22:24;;;;;;;23.45;21.60;;;;;;;27.72;100.00;100809.19;5058651;28;20044;-80
2023/06/27 09:25:09;;;;;;;27.70;25.63;;;;;;;27.44;100.00;100803.19;5065432;28;20087;-80
2023/06/27 09:27:36;;;;;;;22.92;21.13;;;;;;;28.13;100.00;100801.69;5057439;28;20063;-81
2023/06/27 09:30:04;;;;;;;23.30;21.40;;;;;;;28.06;100.00;100799.44;5057365;28;20045;-81
2023/06/27 09:32:31;;;;;;;23.88;21.95;;;;;;;28.04;100.00;100804.41;5060022;28;20497;-80
2023/06/27 09:35:02;;;;;;;23.23;21.33;;;;;;;27.35;100.00;100802.34;5057527;28;20045;-81
2023/06/27 09:37:31;;;;;;;23.17;20.95;;;;;;;27.61;100.00;100799.69;5059384;28;20060;-83
2023/06/27 09:39:58;;;;;;;24.95;22.48;;;;;;;28.41;100.00;100799.41;5049790;28;20053;-82
2023/06/27 09:42:25;;;;;;;24.92;22.92;;;;;;;27.97;100.00;100802.16;5050080;28;20055;-82
2023/06/27 09:44:52;;;;;;;24.40;22.30;;;;;;;28.40;100.00;100801.31;5055360;28;20048;-81
2023/06/27 09:47:19;;;;;;;26.20;24.20;;;;;;;28.15;100.00;100797.50;5057192;28;20060;-83
2023/06/27 09:49:45;;;;;;;23.55;21.55;;;;;;;28.87;100.00;100798.66;5058376;28;20549;-83
2023/06/27 09:52:14;;;;;;;22.25;20.45;;;;;;;28.40;100.00;100798.59;5069914;28;20056;-82
2023/06/27 09:54:47;;;;;;;23.92;21.92;;;;;;;28.20;100.00;100794.63;5057173;28;20045;-83
2023/06/27 09:57:16;;;;;;;23.25;21.17;;;;;;;28.03;100.00;100800.06;5062175;28;20063;-83
2023/06/27 09:59:43;;;;;;;22.55;20.60;;;;;;;27.98;100.00;100794.78;5061344;28;20060;-83
2023/06/27 10:02:14;;;;;;;22.67;20.98;;;;;;;28.93;100.00;100791.09;5058892;28;20532;-82
2023/06/27 10:04:41;;;;;;;24.00;22.10;;;;;;;28.59;100.00;100792.00;5056049;28;20092;-81
2023/06/27 10:07:13;;;;;;;23.65;21.85;;;;;;;28.62;100.00;100796.78;5060416;28;20506;-83
2023/06/27 10:09:41;;;;;;;22.13;20.42;;;;;;;28.50;100.00;100789.28;5058832;28;20049;-84
2023/06/27 10:12:09;;;;;;;20.92;19.40;;;;;;;28.42;100.00;100785.44;5058753;28;20049;-83
2023/06/27 10:14:36;;;;;;;22.80;21.00;;;;;;;28.43;100.00;100787.03;5059338;28;20053;-82
2023/06/27 10:17:05;;;;;;;21.50;19.80;;;;;;;28.80;100.00;100790.16;5056223;28;20040;-82
2023/06/27 10:19:34;;;;;;;20.98;19.27;;;;;;;28.90;100.00;100791.75;5059365;28;20050;-83
2023/06/27 10:22:03;;;;;;;21.50;19.85;;;;;;;28.91;100.00;100791.41;5060723;28;20047;-82
2023/06/27 10:24:30;;;;;;;22.25;20.35;;;;;;;30.15;100.00;100784.84;5059131;28;20422;-83
2023/06/27 10:26:59;;;;;;;23.35;21.58;;;;;;;29.11;100.00;100784.44;5061825;28;20049;-83
2023/06/27 10:29:31;;;;;;;24.67;22.70;;;;;;;29.63;100.00;100777.88;5061218;28;20460;-84
2023/06/27 10:31:59;;;;;;;22.58;20.88;;;;;;;28.89;100.00;100776.44;5055643;28;20132;-82
2023/06/27 10:34:28;;;;;;;22.88;20.98;;;;;;;29.04;100.00;100772.41;5057127;28;20055;-81
2023/06/27 10:37:00;;;;;;;24.77;22.77;;;;;;;29.76;100.00;100778.75;5058685;28;20048;-84
2023/06/27 10:39:31;;;;;;;23.23;21.52;;;;;;;29.60;100.00;100773.84;5058863;28;20057;-83
2023/06/27 10:42:04;;;;;;;23.70;22.05;;;;;;;29.01;100.00;100768.34;5058607;28;20051;-83
2023/06/27 10:44:32;;;;;;;23.42;21.55;;;;;;;28.61;100.00;100765.16;5058864;28;20048;-82
2023/06/27 10:47:29;;;;;;;25.88;24.02;;;;;;;29.13;100.00;100771.22;5060807;28;20072;-83
2023/06/27 10:50:06;;;;;;;25.92;24.13;;;;;;;29.59;100.00;100771.41;5059129;28;20140;-81
2023/06/27 10:52:33;;;;;;;25.05;23.05;;;;;;;28.90;100.00;100762.47;5063577;28;20493;-83
2023/06/27 10:55:23;;;;;;;22.95;21.05;;;;;;;29.70;100.00;100767.19;5049486;28;20057;-82
2023/06/27 10:58:02;;;;;;;20.92;19.20;;;;;;;29.18;100.00;100764.78;5051803;28;20437;-83
2023/06/27 11:00:32;;;;;;;22.55;20.95;;;;;;;29.44;100.00;100768.16;5062034;28;20048;-81
2023/06/27 11:03:03;;;;;;;24.20;22.15;;;;;;;29.53;100.00;100757.13;5064542;28;20106;-83